Time;durP1;ratioP1;P1;durP2;ratioP2;P2;SDS_P1;SDS_P2;PMS_P1;PMS_P2;Temp;Humidity;BMP_temperature;BMP_pressure;BME280_temperature;BME280_humidity;BME280_pressure;Samples;Min_cycle;Max_cycle;Signal;HPM_P1;HPM_P2
2024/02/20 06:00:29;;;;;;;10.10;3.60;;;;;;;;;;6149369;23;20435;-95
2024/02/20 06:02:55;;;;;;;25.20;3.77;;;;;;;;;;4970878;28;20444;-74
2024/02/20 06:05:21;;;;;;;18.13;3.57;;;;;;;;;;4972739;28;20420;-77
2024/02/20 06:07:48;;;;;;;18.37;4.53;;;;;;;;;;4971403;28;20419;-75
2024/02/20 06:10:14;;;;;;;14.17;3.90;;;;;;;;;;4976586;28;20911;-75
2024/02/20 06:12:40;;;;;;;15.90;3.70;;;;;;;;;;4976372;28;20473;-75
2024/02/20 06:15:07;;;;;;;15.00;4.10;;;;;;;;;;4977969;28;20446;-77
2024/02/20 06:17:33;;;;;;;17.60;4.03;;;;;;;;;;4978916;28;20419;-77
2024/02/20 06:19:58;;;;;;;17.40;4.20;;;;;;;;;;4978312;28;20416;-77
2024/02/20 06:22:24;;;;;;;17.10;4.27;;;;;;;;;;4978708;28;20522;-77
2024/02/20 06:24:50;;;;;;;21.53;5.07;;;;;;;;;;4978320;28;20424;-77
2024/02/20 06:27:16;;;;;;;17.63;4.17;;;;;;;;;;4978964;28;20422;-77
2024/02/20 06:29:42;;;;;;;11.40;3.33;;;;;;;;;;4979904;28;20470;-77
2024/02/20 06:32:08;;;;;;;12.33;4.27;;;;;;;;;;4983003;28;20552;-76
2024/02/20 06:34:36;;;;;;;14.40;4.40;;;;;;;;;;4983046;28;20787;-77
2024/02/20 06:37:02;;;;;;;12.30;3.53;;;;;;;;;;4981594;28;20444;-76
2024/02/20 06:39:28;;;;;;;14.90;3.50;;;;;;;;;;4982114;28;20440;-76
2024/02/20 06:41:54;;;;;;;14.87;3.30;;;;;;;;;;4978601;28;20443;-77
2024/02/20 06:44:20;;;;;;;10.43;3.03;;;;;;;;;;4988253;28;20424;-76
2024/02/20 06:46:46;;;;;;;14.20;3.40;;;;;;;;;;4982836;28;20411;-76
2024/02/20 06:49:12;;;;;;;11.97;4.07;;;;;;;;;;4983483;28;20459;-75
2024/02/20 06:51:39;;;;;;;13.50;3.93;;;;;;;;;;4977218;28;20427;-76
2024/02/20 06:54:06;;;;;;;6.57;3.63;;;;;;;;;;4976941;28;20432;-77
2024/02/20 06:56:32;;;;;;;9.90;3.90;;;;;;;;;;4977806;28;20783;-77
2024/02/20 06:58:58;;;;;;;9.10;3.00;;;;;;;;;;4976715;28;20463;-77
2024/02/20 07:01:24;;;;;;;19.90;3.63;;;;;;;;;;4975868;28;20473;-76
2024/02/20 07:03:52;;;;;;;26.20;3.57;;;;;;;;;;4978591;28;20424;-77
2024/02/20 07:06:18;;;;;;;11.07;3.17;;;;;;;;;;4980054;28;20412;-76
2024/02/20 07:08:44;;;;;;;19.47;3.73;;;;;;;;;;4979006;28;20808;-77
2024/02/20 07:11:13;;;;;;;10.80;4.10;;;;;;;;;;4978260;28;20435;-77
2024/02/20 07:13:39;;;;;;;13.20;3.70;;;;;;;;;;4978252;28;20428;-77
2024/02/20 07:16:05;;;;;;;14.57;3.93;;;;;;;;;;4977115;28;20420;-77
2024/02/20 07:18:32;;;;;;;10.37;3.10;;;;;;;;;;4978286;28;20420;-78
2024/02/20 07:20:58;;;;;;;22.67;4.07;;;;;;;;;;4975535;28;20448;-77
2024/02/20 07:23:24;;;;;;;12.03;3.63;;;;;;;;;;4976775;28;20444;-77
2024/02/20 07:25:50;;;;;;;17.60;4.10;;;;;;;;;;4978104;28;20930;-77
2024/02/20 07:28:17;;;;;;;9.93;3.90;;;;;;;;;;4978215;28;20518;-78
2024/02/20 07:30:43;;;;;;;10.73;4.20;;;;;;;;;;4977309;28;20428;-77
2024/02/20 07:33:09;;;;;;;19.53;3.80;;;;;;;;;;4982840;28;21027;-78
2024/02/20 07:35:38;;;;;;;9.60;3.77;;;;;;;;;;4980065;28;20416;-77
2024/02/20 07:38:04;;;;;;;12.80;3.30;;;;;;;;;;4974591;28;20519;-76
2024/02/20 07:40:30;;;;;;;26.03;4.53;;;;;;;;;;4974674;28;20507;-75
2024/02/20 07:42:56;;;;;;;6.43;3.43;;;;;;;;;;4976620;28;20462;-77
2024/02/20 07:45:22;;;;;;;14.40;4.07;;;;;;;;;;4978925;28;20439;-77
2024/02/20 07:47:48;;;;;;;20.93;4.10;;;;;;;;;;4977949;28;20416;-77
2024/02/20 07:50:14;;;;;;;16.27;3.90;;;;;;;;;;4978170;28;20829;-77
2024/02/20 07:52:41;;;;;;;13.83;3.50;;;;;;;;;;4977667;28;20788;-77
2024/02/20 07:55:07;;;;;;;18.00;3.80;;;;;;;;;;4975989;28;20416;-76
2024/02/20 07:57:33;;;;;;;13.00;4.13;;;;;;;;;;4974891;28;20412;-75
2024/02/20 07:59:59;;;;;;;15.20;3.83;;;;;;;;;;4974641;28;20416;-76
2024/02/20 08:02:25;;;;;;;17.57;3.70;;;;;;;;;;4979967;28;20459;-79
2024/02/20 08:04:51;;;;;;;10.13;3.20;;;;;;;;;;4977430;28;20426;-79
2024/02/20 08:07:17;;;;;;;17.50;3.50;;;;;;;;;;4975583;28;20415;-74
2024/02/20 08:09:43;;;;;;;15.03;4.03;;;;;;;;;;4974238;28;20521;-73
2024/02/20 08:12:09;;;;;;;16.63;4.73;;;;;;;;;;4973873;28;20467;-73
2024/02/20 08:14:35;;;;;;;10.50;3.73;;;;;;;;;;4973968;28;20415;-73
2024/02/20 08:17:01;;;;;;;7.93;3.57;;;;;;;;;;4972215;28;20412;-73
2024/02/20 08:19:27;;;;;;;14.97;5.20;;;;;;;;;;4973772;28;20462;-73
2024/02/20 08:21:53;;;;;;;17.70;4.33;;;;;;;;;;4973723;28;20970;-74
2024/02/20 08:24:19;;;;;;;17.87;3.87;;;;;;;;;;4973699;28;20412;-75
2024/02/20 08:26:45;;;;;;;15.60;4.30;;;;;;;;;;4973843;28;20408;-75
2024/02/20 08:29:12;;;;;;;13.20;3.63;;;;;;;;;;4974215;28;20866;-76
2024/02/20 08:31:41;;;;;;;12.97;4.43;;;;;;;;;;4972957;28;20431;-75
2024/02/20 08:34:07;;;;;;;13.00;3.83;;;;;;;;;;4973940;28;20419;-75
2024/02/20 08:36:33;;;;;;;18.87;3.77;;;;;;;;;;4974106;28;20426;-75
2024/02/20 08:38:59;;;;;;;18.83;3.60;;;;;;;;;;4974037;28;20404;-76
2024/02/20 08:41:25;;;;;;;16.20;3.80;;;;;;;;;;4978791;28;20946;-75
2024/02/20 08:43:52;;;;;;;12.43;4.33;;;;;;;;;;4973641;28;20420;-76
2024/02/20 08:46:19;;;;;;;21.17;4.43;;;;;;;;;;4973305;28;20806;-75
2024/02/20 08:48:46;;;;;;;11.03;4.40;;;;;;;;;;4973528;28;20461;-75
2024/02/20 08:51:14;;;;;;;11.63;4.60;;;;;;;;;;4973183;28;20803;-76
2024/02/20 08:53:40;;;;;;;20.47;4.63;;;;;;;;;;4979076;28;20415;-76
2024/02/20 08:56:06;;;;;;;13.73;3.53;;;;;;;;;;4974153;28;20404;-76
2024/02/20 08:58:32;;;;;;;15.80;4.33;;;;;;;;;;4973495;28;20447;-76
2024/02/20 09:00:58;;;;;;;15.10;4.70;;;;;;;;;;4972284;28;20494;-76
2024/02/20 09:03:28;;;;;;;14.90;4.17;;;;;;;;;;4965371;28;20441;-76
2024/02/20 09:05:54;;;;;;;13.63;4.63;;;;;;;;;;4962877;28;20412;-74
2024/02/20 09:08:20;;;;;;;19.53;4.30;;;;;;;;;;4953801;29;20551;-74
2024/02/20 09:10:46;;;;;;;12.57;4.03;;;;;;;;;;4956640;28;20512;-75
2024/02/20 09:13:12;;;;;;;19.50;4.50;;;;;;;;;;4956101;28;20480;-73
2024/02/20 09:15:38;;;;;;;9.13;3.73;;;;;;;;;;4953796;28;20846;-73
2024/02/20 09:18:04;;;;;;;17.57;4.60;;;;;;;;;;4956741;28;20419;-73
2024/02/20 09:20:30;;;;;;;14.30;3.57;;;;;;;;;;4973494;28;20510;-72
2024/02/20 09:22:57;;;;;;;18.10;4.20;;;;;;;;;;4971636;28;20500;-74
2024/02/20 09:25:23;;;;;;;21.03;4.00;;;;;;;;;;4973052;28;20420;-74
2024/02/20 09:27:49;;;;;;;25.17;4.90;;;;;;;;;;4970309;28;20416;-73
2024/02/20 09:30:15;;;;;;;15.63;4.20;;;;;;;;;;4968137;28;20419;-74
2024/02/20 09:32:43;;;;;;;14.10;4.57;;;;;;;;;;4958000;28;20922;-74
2024/02/20 09:35:09;;;;;;;17.70;5.20;;;;;;;;;;4958094;28;20425;-74
2024/02/20 09:37:35;;;;;;;17.30;3.60;;;;;;;;;;4953414;29;20412;-76
2024/02/20 09:40:01;;;;;;;18.43;4.17;;;;;;;;;;4953695;29;20420;-76
2024/02/20 09:42:29;;;;;;;14.37;4.70;;;;;;;;;;4953333;28;20436;-75
2024/02/20 09:44:55;;;;;;;16.13;4.67;;;;;;;;;;4957103;28;20421;-71
2024/02/20 09:47:22;;;;;;;19.20;4.50;;;;;;;;;;4971757;28;20437;-73
2024/02/20 09:49:53;;;;;;;13.80;5.03;;;;;;;;;;4971476;28;20463;-74
2024/02/20 09:52:20;;;;;;;21.80;5.03;;;;;;;;;;4957100;28;20443;-73
2024/02/20 09:54:46;;;;;;;21.00;5.00;;;;;;;;;;4960759;28;20423;-75
2024/02/20 09:57:15;;;;;;;9.90;3.37;;;;;;;;;;4965459;28;20438;-74
2024/02/20 09:59:41;;;;;;;14.50;4.47;;;;;;;;;;4974567;28;20779;-75
2024/02/20 10:02:11;;;;;;;14.93;4.73;;;;;;;;;;4976014;28;20555;-75
2024/02/20 10:04:37;;;;;;;17.80;4.97;;;;;;;;;;4967650;28;20831;-75
2024/02/20 10:07:05;;;;;;;17.83;4.73;;;;;;;;;;4973205;28;20498;-73
2024/02/20 10:09:32;;;;;;;13.00;4.03;;;;;;;;;;4975134;28;20467;-72
2024/02/20 10:11:58;;;;;;;18.03;4.93;;;;;;;;;;4976445;28;20570;-74
2024/02/20 10:14:27;;;;;;;11.07;4.33;;;;;;;;;;4976569;28;20412;-71
2024/02/20 10:17:03;;;;;;;24.13;5.67;;;;;;;;;;4976487;28;20571;-71
2024/02/20 10:19:29;;;;;;;19.57;5.00;;;;;;;;;;4988773;28;20447;-73
2024/02/20 10:21:56;;;;;;;13.73;4.00;;;;;;;;;;4990638;28;20463;-73
2024/02/20 10:24:22;;;;;;;19.33;4.33;;;;;;;;;;4987614;28;20423;-75
2024/02/20 10:26:48;;;;;;;13.20;4.67;;;;;;;;;;4971278;28;20425;-74
2024/02/20 10:29:14;;;;;;;22.67;4.30;;;;;;;;;;4968462;28;20595;-75
2024/02/20 10:31:40;;;;;;;13.73;4.30;;;;;;;;;;4965131;28;20700;-73
2024/02/20 10:34:06;;;;;;;19.27;4.53;;;;;;;;;;4956670;28;20405;-73
2024/02/20 10:36:32;;;;;;;15.90;4.30;;;;;;;;;;4956682;29;20742;-73
2024/02/20 10:39:05;;;;;;;12.37;3.83;;;;;;;;;;4957714;28;20423;-73
2024/02/20 10:41:31;;;;;;;21.10;5.00;;;;;;;;;;4963721;28;20886;-73
2024/02/20 10:43:57;;;;;;;15.70;5.13;;;;;;;;;;4967665;28;20516;-72
2024/02/20 10:46:26;;;;;;;18.23;4.57;;;;;;;;;;4956229;28;20412;-73
2024/02/20 10:48:55;;;;;;;13.63;4.37;;;;;;;;;;4958967;28;20502;-73
2024/02/20 10:51:24;;;;;;;11.60;3.87;;;;;;;;;;4956690;28;20448;-73
2024/02/20 10:53:51;;;;;;;22.57;4.90;;;;;;;;;;4957353;28;20820;-73
2024/02/20 10:56:17;;;;;;;13.73;3.47;;;;;;;;;;4956122;28;20421;-73
2024/02/20 10:58:45;;;;;;;15.97;4.27;;;;;;;;;;4957045;28;20431;-77
2024/02/20 11:01:13;;;;;;;13.30;4.47;;;;;;;;;;4954008;28;20551;-76
2024/02/20 11:03:39;;;;;;;15.50;3.80;;;;;;;;;;4965428;28;20875;-74
2024/02/20 11:06:05;;;;;;;25.00;4.93;;;;;;;;;;4975332;28;20984;-74
2024/02/20 11:08:31;;;;;;;14.37;3.50;;;;;;;;;;4975241;28;20975;-74
2024/02/20 11:11:09;;;;;;;15.80;3.50;;;;;;;;;;4974972;28;20439;-73
2024/02/20 11:13:35;;;;;;;12.53;4.70;;;;;;;;;;4974015;28;20500;-74
2024/02/20 11:16:14;;;;;;;10.17;3.07;;;;;;;;;;4973836;28;20941;-73
2024/02/20 11:18:53;;;;;;;13.93;3.73;;;;;;;;;;4975523;28;20447;-74
2024/02/20 11:21:26;;;;;;;16.23;4.23;;;;;;;;;;4974695;28;20442;-73
2024/02/20 11:23:52;;;;;;;20.80;4.30;;;;;;;;;;4974996;28;20503;-72
2024/02/20 11:26:25;;;;;;;14.40;4.00;;;;;;;;;;4973174;28;20456;-72
2024/02/20 11:28:51;;;;;;;14.70;4.27;;;;;;;;;;4974835;28;20487;-73
2024/02/20 11:31:24;;;;;;;11.10;4.93;;;;;;;;;;4974620;28;20932;-73
2024/02/20 11:33:50;;;;;;;12.43;3.93;;;;;;;;;;4975009;28;20400;-72
2024/02/20 11:36:16;;;;;;;14.50;3.60;;;;;;;;;;4977188;28;20819;-72
2024/02/20 11:38:42;;;;;;;18.30;4.30;;;;;;;;;;4977692;28;20827;-72
2024/02/20 11:41:08;;;;;;;15.97;4.70;;;;;;;;;;4962378;28;20459;-73
2024/02/20 11:43:34;;;;;;;13.30;3.20;;;;;;;;;;4955755;29;20893;-73
2024/02/20 11:46:00;;;;;;;12.43;3.57;;;;;;;;;;4955610;28;20423;-71
2024/02/20 11:48:26;;;;;;;7.27;2.43;;;;;;;;;;4958647;29;20452;-73
2024/02/20 11:50:59;;;;;;;16.47;4.10;;;;;;;;;;4975375;28;20481;-73
2024/02/20 11:53:25;;;;;;;13.53;3.73;;;;;;;;;;4967156;28;20987;-72
2024/02/20 11:55:53;;;;;;;20.73;3.67;;;;;;;;;;4965396;28;20405;-73
2024/02/20 11:58:21;;;;;;;8.23;2.70;;;;;;;;;;4966355;28;20559;-73
2024/02/20 12:00:47;;;;;;;16.07;3.87;;;;;;;;;;4961045;28;20468;-73
2024/02/20 12:03:23;;;;;;;14.00;3.83;;;;;;;;;;4963208;29;20421;-74
2024/02/20 12:05:49;;;;;;;15.70;3.67;;;;;;;;;;4964507;28;20424;-72
2024/02/20 12:08:19;;;;;;;13.60;3.97;;;;;;;;;;4976219;28;20976;-73
2024/02/20 12:10:46;;;;;;;13.80;3.90;;;;;;;;;;4982136;28;20530;-73
2024/02/20 12:13:12;;;;;;;16.10;3.40;;;;;;;;;;4974460;28;20419;-73
2024/02/20 12:15:39;;;;;;;7.43;4.07;;;;;;;;;;4974189;28;20531;-72
2024/02/20 12:18:05;;;;;;;17.77;4.87;;;;;;;;;;4974102;28;20436;-72
2024/02/20 12:20:31;;;;;;;10.53;3.90;;;;;;;;;;4973996;28;20442;-72
2024/02/20 12:23:00;;;;;;;15.83;3.53;;;;;;;;;;4974029;28;20407;-72
2024/02/20 12:25:26;;;;;;;13.97;3.80;;;;;;;;;;4969445;28;20411;-72
2024/02/20 12:27:53;;;;;;;11.10;3.30;;;;;;;;;;4969495;28;20949;-73
2024/02/20 12:30:19;;;;;;;9.57;3.00;;;;;;;;;;4973973;28;20520;-73
2024/02/20 12:32:45;;;;;;;12.03;3.40;;;;;;;;;;4973626;28;20523;-73
2024/02/20 12:35:11;;;;;;;10.57;4.30;;;;;;;;;;4974093;28;20419;-73
2024/02/20 12:37:37;;;;;;;21.23;3.80;;;;;;;;;;4973738;28;20462;-74
2024/02/20 12:40:06;;;;;;;11.53;3.40;;;;;;;;;;4973842;28;20415;-75
2024/02/20 12:42:32;;;;;;;10.50;3.87;;;;;;;;;;4973221;28;20434;-73
2024/02/20 12:44:58;;;;;;;15.47;3.73;;;;;;;;;;4973606;28;20896;-74
2024/02/20 12:47:24;;;;;;;12.17;3.30;;;;;;;;;;4972168;28;20794;-74
2024/02/20 12:49:50;;;;;;;10.17;2.93;;;;;;;;;;4973129;28;20822;-74
2024/02/20 12:52:16;;;;;;;7.37;3.03;;;;;;;;;;4973225;28;20806;-72
2024/02/20 12:54:42;;;;;;;16.03;3.70;;;;;;;;;;4971802;28;20467;-72
2024/02/20 12:57:08;;;;;;;13.27;3.30;;;;;;;;;;4953914;29;20409;-73
2024/02/20 12:59:35;;;;;;;12.37;3.13;;;;;;;;;;4954081;29;20460;-73
2024/02/20 13:02:01;;;;;;;6.50;3.13;;;;;;;;;;4952973;28;20503;-73
2024/02/20 13:04:27;;;;;;;11.00;3.40;;;;;;;;;;4953449;29;20424;-73
2024/02/20 13:06:53;;;;;;;14.50;3.50;;;;;;;;;;4953749;29;20915;-72
2024/02/20 13:09:19;;;;;;;14.33;3.87;;;;;;;;;;4954065;29;20483;-73
2024/02/20 13:11:46;;;;;;;10.37;3.73;;;;;;;;;;4953420;28;20435;-72
2024/02/20 13:14:12;;;;;;;8.83;3.07;;;;;;;;;;4952415;29;20435;-73
2024/02/20 13:16:44;;;;;;;10.57;3.53;;;;;;;;;;4970061;28;20416;-74
2024/02/20 13:19:10;;;;;;;21.90;4.90;;;;;;;;;;4971113;28;20470;-74
2024/02/20 13:21:38;;;;;;;11.60;3.40;;;;;;;;;;4971528;28;20538;-73
2024/02/20 13:24:04;;;;;;;17.40;4.80;;;;;;;;;;4971535;28;20439;-74
2024/02/20 13:26:30;;;;;;;19.37;3.53;;;;;;;;;;4971956;28;20424;-73
2024/02/20 13:28:56;;;;;;;6.93;3.30;;;;;;;;;;4989601;28;20531;-72
2024/02/20 13:31:22;;;;;;;8.50;3.50;;;;;;;;;;4994910;28;20447;-72
2024/02/20 13:33:48;;;;;;;12.83;3.23;;;;;;;;;;4995066;28;20412;-72
2024/02/20 13:36:14;;;;;;;11.67;3.70;;;;;;;;;;4994855;28;20435;-72
2024/02/20 13:38:42;;;;;;;9.67;3.63;;;;;;;;;;4988587;28;20431;-73
2024/02/20 13:41:08;;;;;;;13.07;4.33;;;;;;;;;;4982617;28;20486;-72
2024/02/20 13:43:34;;;;;;;16.53;3.83;;;;;;;;;;4973784;28;20891;-73
2024/02/20 13:46:00;;;;;;;14.03;3.80;;;;;;;;;;4972999;28;20420;-72
2024/02/20 13:48:26;;;;;;;8.33;3.87;;;;;;;;;;4991586;28;20547;-73
2024/02/20 13:50:52;;;;;;;19.67;4.37;;;;;;;;;;4975926;28;21047;-72
2024/02/20 13:53:20;;;;;;;21.10;4.80;;;;;;;;;;4964953;28;20475;-71
2024/02/20 13:55:47;;;;;;;10.40;4.13;;;;;;;;;;4962644;28;20903;-72
2024/02/20 13:58:13;;;;;;;11.97;3.80;;;;;;;;;;4972368;28;20431;-74
2024/02/20 14:00:41;;;;;;;13.97;4.90;;;;;;;;;;4972711;28;20981;-74
2024/02/20 14:03:07;;;;;;;17.97;5.00;;;;;;;;;;4973250;28;20416;-74
2024/02/20 14:05:34;;;;;;;10.50;3.27;;;;;;;;;;4972666;28;20534;-74
2024/02/20 14:08:00;;;;;;;14.30;4.60;;;;;;;;;;4971502;28;20919;-74
2024/02/20 14:10:26;;;;;;;14.10;4.67;;;;;;;;;;4972631;28;20426;-73
2024/02/20 14:12:52;;;;;;;14.93;4.23;;;;;;;;;;4972695;28;20415;-74
2024/02/20 14:15:18;;;;;;;15.00;3.77;;;;;;;;;;4971433;28;20412;-74
2024/02/20 14:17:49;;;;;;;11.37;4.17;;;;;;;;;;4972573;28;20907;-73
2024/02/20 14:20:16;;;;;;;9.40;3.60;;;;;;;;;;4971612;28;20424;-74
2024/02/20 14:22:42;;;;;;;11.63;4.30;;;;;;;;;;4975926;28;20416;-74
2024/02/20 14:25:08;;;;;;;11.83;3.30;;;;;;;;;;4974153;28;20474;-74
2024/02/20 14:27:34;;;;;;;10.97;3.30;;;;;;;;;;4972752;28;20419;-74
2024/02/20 14:30:00;;;;;;;16.63;4.70;;;;;;;;;;4972893;28;20958;-74
2024/02/20 14:32:26;;;;;;;10.27;3.80;;;;;;;;;;4974197;28;20447;-74
2024/02/20 14:34:52;;;;;;;13.70;3.63;;;;;;;;;;4975818;28;20450;-74
2024/02/20 14:37:18;;;;;;;9.10;3.97;;;;;;;;;;4975943;28;20470;-74
2024/02/20 14:39:44;;;;;;;14.50;3.63;;;;;;;;;;4974257;28;20498;-74
2024/02/20 14:42:10;;;;;;;12.77;3.50;;;;;;;;;;4974576;28;20451;-74
2024/02/20 14:44:36;;;;;;;9.43;3.40;;;;;;;;;;4975947;28;20423;-74
2024/02/20 14:47:04;;;;;;;7.93;3.43;;;;;;;;;;4962989;28;20423;-72
2024/02/20 14:49:30;;;;;;;8.63;3.10;;;;;;;;;;4974232;28;21100;-72
2024/02/20 14:51:56;;;;;;;16.57;2.90;;;;;;;;;;4968009;28;20452;-71
2024/02/20 14:54:22;;;;;;;9.13;3.40;;;;;;;;;;4975243;28;20517;-70
2024/02/20 14:56:51;;;;;;;6.57;3.07;;;;;;;;;;4982114;28;20515;-71
2024/02/20 14:59:17;;;;;;;14.10;4.10;;;;;;;;;;4976516;28;20412;-72
2024/02/20 15:01:44;;;;;;;14.17;3.70;;;;;;;;;;4994766;28;20454;-71
2024/02/20 15:04:10;;;;;;;15.83;3.37;;;;;;;;;;4982727;28;20419;-71
2024/02/20 15:06:36;;;;;;;8.23;3.33;;;;;;;;;;4975464;28;20774;-72
2024/02/20 15:09:03;;;;;;;11.67;3.00;;;;;;;;;;4974655;28;20510;-76
2024/02/20 15:11:29;;;;;;;9.80;3.67;;;;;;;;;;4981101;28;20490;-74
2024/02/20 15:13:55;;;;;;;14.67;3.63;;;;;;;;;;4977945;28;20412;-74
2024/02/20 15:16:21;;;;;;;9.00;3.83;;;;;;;;;;4975910;28;20419;-73
2024/02/20 15:18:47;;;;;;;6.57;3.20;;;;;;;;;;4977082;28;20499;-75
2024/02/20 15:21:13;;;;;;;12.57;3.43;;;;;;;;;;4979747;28;20475;-74
2024/02/20 15:23:39;;;;;;;15.43;4.07;;;;;;;;;;4975257;28;20423;-73
2024/02/20 15:26:08;;;;;;;9.23;3.70;;;;;;;;;;4974943;28;20428;-73
2024/02/20 15:28:34;;;;;;;7.70;3.50;;;;;;;;;;4968123;28;21029;-73
2024/02/20 15:31:00;;;;;;;13.97;3.70;;;;;;;;;;4954168;28;20973;-73
2024/02/20 15:33:26;;;;;;;7.40;3.43;;;;;;;;;;4973271;28;20456;-74
2024/02/20 15:35:53;;;;;;;10.20;3.20;;;;;;;;;;4974539;28;20424;-74
2024/02/20 15:38:19;;;;;;;10.43;3.60;;;;;;;;;;4974468;28;20455;-73
2024/02/20 15:40:45;;;;;;;7.40;2.90;;;;;;;;;;4974150;28;20435;-74
2024/02/20 15:43:13;;;;;;;8.83;3.30;;;;;;;;;;4974332;28;20892;-73
2024/02/20 15:45:46;;;;;;;10.13;2.97;;;;;;;;;;4973204;28;20419;-73
2024/02/20 15:48:13;;;;;;;16.23;3.20;;;;;;;;;;4974122;28;20495;-73
2024/02/20 15:50:42;;;;;;;11.10;3.43;;;;;;;;;;4974969;28;20432;-73
2024/02/20 15:53:08;;;;;;;8.43;3.37;;;;;;;;;;4968341;28;20448;-73
2024/02/20 15:55:35;;;;;;;12.93;4.07;;;;;;;;;;4954858;28;20409;-74
2024/02/20 15:58:08;;;;;;;13.03;4.40;;;;;;;;;;4970967;28;21006;-73
2024/02/20 16:00:34;;;;;;;9.50;2.80;;;;;;;;;;4970424;28;20467;-74
2024/02/20 16:03:01;;;;;;;6.93;3.27;;;;;;;;;;4955209;28;20769;-74
2024/02/20 16:05:27;;;;;;;9.53;3.57;;;;;;;;;;4967681;28;21071;-74
2024/02/20 16:07:57;;;;;;;9.57;3.40;;;;;;;;;;4972927;28;20420;-74
2024/02/20 16:10:23;;;;;;;11.10;3.60;;;;;;;;;;4973887;28;20460;-74
2024/02/20 16:12:49;;;;;;;9.87;2.83;;;;;;;;;;4974300;28;20419;-74
2024/02/20 16:15:15;;;;;;;8.57;3.10;;;;;;;;;;4974243;28;20479;-74
2024/02/20 16:17:41;;;;;;;6.23;3.20;;;;;;;;;;4974263;28;20415;-74
2024/02/20 16:20:07;;;;;;;11.17;3.60;;;;;;;;;;4974040;28;20420;-74
2024/02/20 16:22:34;;;;;;;7.83;4.00;;;;;;;;;;4973088;28;20817;-74
2024/02/20 16:25:04;;;;;;;10.00;3.40;;;;;;;;;;4962687;28;20416;-74
2024/02/20 16:27:32;;;;;;;10.07;3.50;;;;;;;;;;4954943;28;20452;-74
2024/02/20 16:29:59;;;;;;;8.07;4.03;;;;;;;;;;4957694;28;20468;-74
2024/02/20 16:32:25;;;;;;;13.43;4.20;;;;;;;;;;4962921;28;20435;-73
2024/02/20 16:34:51;;;;;;;12.50;2.90;;;;;;;;;;4976902;28;20479;-73
2024/02/20 16:37:17;;;;;;;14.80;3.67;;;;;;;;;;4972929;28;20448;-74
2024/02/20 16:39:43;;;;;;;10.63;3.30;;;;;;;;;;4971741;28;20834;-74
2024/02/20 16:42:09;;;;;;;6.20;2.97;;;;;;;;;;4973607;28;20802;-74
2024/02/20 16:44:35;;;;;;;14.40;3.80;;;;;;;;;;4974117;28;20420;-73
2024/02/20 16:47:02;;;;;;;8.40;3.80;;;;;;;;;;4972289;28;20486;-74
2024/02/20 16:49:28;;;;;;;11.63;4.00;;;;;;;;;;4973439;28;20471;-74
2024/02/20 16:51:59;;;;;;;10.67;3.13;;;;;;;;;;4970277;28;20783;-74
2024/02/20 16:54:25;;;;;;;10.13;3.80;;;;;;;;;;4972792;28;20900;-74
2024/02/20 16:56:51;;;;;;;17.93;4.30;;;;;;;;;;4973354;28;20443;-74
2024/02/20 16:59:17;;;;;;;11.03;3.53;;;;;;;;;;4973572;28;20433;-74
2024/02/20 17:01:43;;;;;;;11.43;3.70;;;;;;;;;;4972928;28;20460;-74
2024/02/20 17:04:10;;;;;;;13.83;3.30;;;;;;;;;;4973245;28;20502;-73
2024/02/20 17:06:36;;;;;;;11.07;2.80;;;;;;;;;;4972371;28;20417;-73
2024/02/20 17:09:03;;;;;;;9.40;3.77;;;;;;;;;;4975461;28;20459;-73
2024/02/20 17:11:29;;;;;;;8.77;2.83;;;;;;;;;;4975052;28;20557;-73
2024/02/20 17:13:55;;;;;;;16.63;4.60;;;;;;;;;;4970914;28;20444;-73
2024/02/20 17:16:21;;;;;;;6.10;3.70;;;;;;;;;;4962601;28;20412;-73
2024/02/20 17:18:47;;;;;;;11.83;4.13;;;;;;;;;;4956689;28;20416;-74
2024/02/20 17:21:13;;;;;;;14.57;4.40;;;;;;;;;;4953759;29;20432;-71
2024/02/20 17:23:40;;;;;;;18.00;3.50;;;;;;;;;;4966037;28;20442;-71
2024/02/20 17:26:07;;;;;;;11.50;3.93;;;;;;;;;;4982908;28;20411;-74
2024/02/20 17:28:33;;;;;;;19.67;4.43;;;;;;;;;;4961089;28;20467;-73
2024/02/20 17:31:03;;;;;;;9.50;3.67;;;;;;;;;;4962714;28;20475;-73
2024/02/20 17:33:29;;;;;;;12.30;4.40;;;;;;;;;;4953832;28;20420;-74
2024/02/20 17:35:57;;;;;;;10.27;3.67;;;;;;;;;;4969424;28;20427;-74
2024/02/20 17:38:23;;;;;;;16.23;4.53;;;;;;;;;;4972937;28;20428;-71
2024/02/20 17:40:49;;;;;;;9.93;3.80;;;;;;;;;;4971657;28;20909;-73
2024/02/20 17:43:17;;;;;;;11.80;3.63;;;;;;;;;;4972886;28;20530;-74
2024/02/20 17:45:43;;;;;;;12.67;3.20;;;;;;;;;;4973243;28;20903;-76
2024/02/20 17:48:11;;;;;;;9.10;3.50;;;;;;;;;;4972065;28;20430;-74
2024/02/20 17:50:37;;;;;;;14.90;4.40;;;;;;;;;;4979387;28;20515;-76
2024/02/20 17:53:04;;;;;;;11.87;3.60;;;;;;;;;;4964772;28;20539;-75
2024/02/20 17:55:30;;;;;;;9.23;3.30;;;;;;;;;;4973776;28;20429;-74
2024/02/20 17:57:56;;;;;;;16.33;3.77;;;;;;;;;;4973651;28;20934;-75
2024/02/20 18:00:22;;;;;;;13.43;4.03;;;;;;;;;;4973092;28;20510;-76
2024/02/20 18:02:48;;;;;;;11.43;3.27;;;;;;;;;;4968045;28;20515;-75
2024/02/20 18:05:14;;;;;;;16.43;3.40;;;;;;;;;;4996167;28;20814;-75
2024/02/20 18:07:40;;;;;;;15.40;4.27;;;;;;;;;;4977791;28;20424;-75
2024/02/20 18:10:06;;;;;;;5.93;3.03;;;;;;;;;;4973190;28;20474;-75
2024/02/20 18:12:32;;;;;;;10.30;3.30;;;;;;;;;;4977329;28;20431;-75
2024/02/20 18:15:00;;;;;;;16.07;3.33;;;;;;;;;;4975021;28;20508;-75
2024/02/20 18:17:27;;;;;;;14.03;3.63;;;;;;;;;;4975260;28;20416;-76
2024/02/20 18:19:53;;;;;;;6.97;3.33;;;;;;;;;;4976792;28;21023;-75
2024/02/20 18:22:19;;;;;;;15.50;4.13;;;;;;;;;;4976779;28;20486;-76
2024/02/20 18:24:45;;;;;;;12.00;4.10;;;;;;;;;;4976968;28;20411;-76
2024/02/20 18:27:11;;;;;;;23.20;7.10;;;;;;;;;;4972336;28;20431;-76
2024/02/20 18:29:36;;;;;;;22.57;6.60;;;;;;;;;;4974229;28;20527;-75
2024/02/20 18:32:02;;;;;;;34.90;14.87;;;;;;;;;;4976265;28;20442;-75
2024/02/20 18:34:28;;;;;;;24.63;8.73;;;;;;;;;;4974836;28;20563;-76
2024/02/20 18:36:54;;;;;;;18.70;8.53;;;;;;;;;;4976353;28;20423;-76
2024/02/20 18:39:20;;;;;;;14.33;6.30;;;;;;;;;;4973616;28;20432;-78
2024/02/20 18:41:47;;;;;;;18.87;6.57;;;;;;;;;;4976275;28;20535;-76
2024/02/20 18:44:13;;;;;;;28.20;5.47;;;;;;;;;;4971755;28;20503;-76
2024/02/20 18:46:44;;;;;;;15.03;5.97;;;;;;;;;;4973836;28;20456;-76
2024/02/20 18:49:10;;;;;;;15.27;6.40;;;;;;;;;;4978236;28;20502;-78
2024/02/20 18:51:36;;;;;;;18.43;6.13;;;;;;;;;;4971491;28;20496;-76
2024/02/20 18:54:03;;;;;;;16.87;7.00;;;;;;;;;;4970385;28;20427;-76
2024/02/20 18:56:29;;;;;;;18.80;6.50;;;;;;;;;;4971835;28;20425;-76
2024/02/20 18:58:56;;;;;;;12.83;5.77;;;;;;;;;;4980989;28;20549;-76
2024/02/20 19:01:22;;;;;;;31.50;11.30;;;;;;;;;;4977699;28;20467;-73
2024/02/20 19:03:48;;;;;;;16.23;6.30;;;;;;;;;;4970392;28;20617;-72
2024/02/20 19:06:14;;;;;;;9.93;5.13;;;;;;;;;;4969954;28;20431;-73
2024/02/20 19:08:43;;;;;;;20.53;6.37;;;;;;;;;;4974227;28;20478;-73
2024/02/20 19:11:10;;;;;;;23.33;5.67;;;;;;;;;;4974632;28;20962;-72
2024/02/20 19:13:37;;;;;;;26.93;6.90;;;;;;;;;;4971658;28;20451;-72
2024/02/20 19:16:04;;;;;;;17.60;6.40;;;;;;;;;;4967523;28;20503;-72
2024/02/20 19:18:30;;;;;;;21.77;7.00;;;;;;;;;;4974312;28;20489;-71
2024/02/20 19:20:56;;;;;;;15.17;5.30;;;;;;;;;;4976830;28;20810;-71
2024/02/20 19:23:22;;;;;;;18.00;5.63;;;;;;;;;;4978103;28;20520;-72
2024/02/20 19:25:48;;;;;;;17.20;6.30;;;;;;;;;;4978755;28;20423;-72
2024/02/20 19:28:14;;;;;;;14.80;6.10;;;;;;;;;;4981478;28;20863;-72
2024/02/20 19:30:40;;;;;;;20.50;6.87;;;;;;;;;;4980951;28;20490;-72
2024/02/20 19:33:06;;;;;;;19.40;8.23;;;;;;;;;;4977922;28;20416;-72
2024/02/20 19:35:34;;;;;;;14.60;6.70;;;;;;;;;;4986091;28;20954;-72
2024/02/20 19:38:00;;;;;;;20.43;9.03;;;;;;;;;;4977026;28;20876;-71
2024/02/20 19:40:26;;;;;;;15.00;6.23;;;;;;;;;;4985903;28;20532;-72
2024/02/20 19:42:52;;;;;;;36.23;7.43;;;;;;;;;;4970658;28;20508;-71
2024/02/20 19:45:18;;;;;;;21.53;7.23;;;;;;;;;;4981628;28;20420;-72
2024/02/20 19:47:45;;;;;;;26.50;7.47;;;;;;;;;;4979832;28;20431;-71
2024/02/20 19:50:11;;;;;;;21.83;7.53;;;;;;;;;;4989203;28;20463;-72
2024/02/20 19:52:38;;;;;;;20.13;8.67;;;;;;;;;;4978819;28;20954;-72
2024/02/20 19:55:07;;;;;;;25.43;8.43;;;;;;;;;;4972871;28;20848;-72
2024/02/20 19:57:32;;;;;;;21.73;7.70;;;;;;;;;;4976327;28;20415;-72
2024/02/20 19:59:58;;;;;;;21.03;7.27;;;;;;;;;;4973764;28;20987;-72
2024/02/20 20:02:25;;;;;;;12.67;7.40;;;;;;;;;;4980207;28;20818;-73
2024/02/20 20:04:51;;;;;;;16.43;6.70;;;;;;;;;;4974040;28;20479;-76
2024/02/20 20:07:17;;;;;;;21.40;6.60;;;;;;;;;;5005850;22;20897;-72
2024/02/20 20:09:43;;;;;;;28.53;8.63;;;;;;;;;;5004429;28;20837;-73
2024/02/20 20:12:09;;;;;;;16.83;7.10;;;;;;;;;;5006704;28;20789;-72
2024/02/20 20:14:34;;;;;;;17.17;6.93;;;;;;;;;;5002845;28;20816;-73
2024/02/20 20:17:04;;;;;;;26.50;7.60;;;;;;;;;;5007465;28;20502;-71
2024/02/20 20:19:32;;;;;;;19.57;7.70;;;;;;;;;;5013492;28;20421;-74
2024/02/20 20:21:58;;;;;;;23.27;7.30;;;;;;;;;;5005248;28;20414;-73
2024/02/20 20:24:24;;;;;;;22.70;8.27;;;;;;;;;;5013047;28;20430;-74
2024/02/20 20:26:51;;;;;;;19.60;7.37;;;;;;;;;;5012900;28;20428;-73